| time (UTC) | temp F | wind direction | speed MPH | gust MPH | rain 1hr in | rain 24hr in | rain mn in | humidity % | barometer mb |
| 20260507095509 | 41 | 202 | 5.0 | 9.0 | 0.00 | 0.25 | 0.06 | 77 | 1015.1 |
| 20260507095006 | 41 | 202 | 9.0 | 13.0 | 0.00 | 0.25 | 0.06 | 75 | 1015.1 |
| 20260507094505 | 40 | 202 | 6.0 | 10.0 | 0.00 | 0.25 | 0.06 | 70 | 1015.1 |
| 20260507094004 | 41 | 180 | 2.0 | 6.0 | 0.00 | 0.25 | 0.06 | 70 | 1015.1 |
| 20260507093503 | 41 | 202 | 3.0 | 6.0 | 0.00 | 0.25 | 0.06 | 73 | 1015.1 |
| 20260507093002 | 41 | 202 | 6.0 | 9.0 | 0.00 | 0.25 | 0.06 | 76 | 1015.1 |
| 20260507092507 | 41 | 202 | 9.0 | 13.0 | 0.00 | 0.25 | 0.06 | 76 | 1015.1 |
| 20260507092007 | 41 | 202 | 4.0 | 11.0 | 0.00 | 0.25 | 0.06 | 73 | 1015.1 |
| 20260507091506 | 41 | 180 | 6.0 | 10.0 | 0.00 | 0.25 | 0.06 | 70 | 1015.1 |
| 20260507091004 | 41 | 202 | 6.0 | 9.0 | 0.00 | 0.25 | 0.06 | 65 | 1014.8 |
| 20260507090503 | 41 | 202 | 7.0 | 10.0 | 0.00 | 0.25 | 0.06 | 63 | 1014.8 |
| 20260507090008 | 41 | 202 | 7.0 | 11.0 | 0.00 | 0.25 | 0.06 | 63 | 1014.4 |
| 20260507085507 | 41 | 225 | 7.0 | 10.0 | 0.00 | 0.25 | 0.06 | 53 | 1014.4 |
| 20260507085006 | 41 | 202 | 8.0 | 11.0 | 0.00 | 0.25 | 0.06 | 54 | 1014.4 |
| 20260507084505 | 42 | 157 | 7.0 | 11.0 | 0.00 | 0.25 | 0.06 | 60 | 1014.4 |
| 20260507084021 | 41 | 202 | 7.0 | 13.0 | 0.00 | 0.25 | 0.06 | 52 | 1014.4 |
| 20260507083519 | 41 | 202 | 5.0 | 11.0 | 0.00 | 0.24 | 0.05 | 56 | 1014.4 |
| 20260507083005 | 42 | 247 | 7.0 | 14.0 | 0.00 | 0.24 | 0.05 | 57 | 1014.4 |
| 20260507082504 | 41 | 225 | 13.0 | 17.0 | 0.00 | 0.23 | 0.04 | 56 | 1014.4 |
| 20260507082003 | 41 | 202 | 8.0 | 12.0 | 0.00 | 0.22 | 0.03 | 47 | 1014.4 |
| 20260507081508 | 41 | 202 | 4.0 | 13.0 | 0.00 | 0.21 | 0.02 | 44 | 1014.4 |
| 20260507081001 | 41 | 202 | 7.0 | 11.0 | 0.00 | 0.20 | 0.01 | 43 | 1014.4 |
| 20260507080507 | 41 | 135 | 7.0 | 11.0 | 0.00 | 0.20 | 0.01 | 47 | 1014.4 |
| 20260507080005 | 41 | 157 | 8.0 | 13.0 | 0.00 | 0.19 | 0.00 | 42 | 1014.4 |
| 20260507075504 | 41 | 180 | 6.0 | 11.0 | 0.00 | 0.19 | 0.19 | 44 | 1014.4 |
| 20260507075003 | 41 | 157 | 6.0 | 14.0 | 0.00 | 0.19 | 0.19 | 44 | 1014.4 |
| 20260507074502 | 41 | 202 | 4.0 | 8.0 | 0.00 | 0.19 | 0.19 | 42 | 1014.4 |
| 20260507074007 | 41 | 180 | 6.0 | 11.0 | 0.00 | 0.19 | 0.19 | 51 | 1014.4 |
| 20260507073506 | 41 | 112 | 4.0 | 10.0 | 0.00 | 0.18 | 0.18 | 43 | 1014.4 |
| 20260507073006 | 41 | 135 | 7.0 | 11.0 | 0.00 | 0.18 | 0.18 | 43 | 1014.1 |
| 20260507072505 | 41 | 157 | 5.0 | 12.0 | 0.00 | 0.17 | 0.17 | 41 | 1014.1 |
| 20260507072104 | 41 | 157 | 5.0 | 14.0 | 0.00 | 0.17 | 0.17 | 48 | 1013.8 |
| 20260507071510 | 41 | 157 | 5.0 | 11.0 | 0.00 | 0.16 | 0.16 | 44 | 1013.8 |
| 20260507071007 | 42 | 157 | 6.0 | 10.0 | 0.00 | 0.16 | 0.16 | 46 | 1014.1 |
| 20260507070506 | 42 | 135 | 5.0 | 8.0 | 0.00 | 0.15 | 0.15 | 42 | 1014.1 |
| 20260507070010 | 41 | 112 | 9.0 | 14.0 | 0.00 | 0.15 | 0.15 | 34 | 1013.8 |
| 20260507065503 | 41 | 157 | 1.0 | 5.0 | 0.00 | 0.15 | 0.15 | 37 | 1013.8 |
| 20260507065002 | 42 | 157 | 4.0 | 8.0 | 0.00 | 0.14 | 0.14 | 43 | 1013.8 |
| 20260507064507 | 42 | 225 | 0.0 | 4.0 | 0.00 | 0.14 | 0.14 | 39 | 1013.8 |
| 20260507064006 | 42 | 157 | 3.0 | 9.0 | 0.00 | 0.14 | 0.14 | 39 | 1013.8 |
| 20260507063505 | 42 | 180 | 4.0 | 6.0 | 0.00 | 0.14 | 0.14 | 39 | 1013.8 |
| 20260507063004 | 42 | 202 | 2.0 | 6.0 | 0.00 | 0.13 | 0.13 | 39 | 1013.8 |
| 20260507062503 | 42 | 202 | 4.0 | 6.0 | 0.00 | 0.13 | 0.13 | 42 | 1013.8 |
| 20260507062003 | 42 | 202 | 1.0 | 6.0 | 0.00 | 0.12 | 0.12 | 43 | 1013.8 |
| 20260507061508 | 42 | 202 | 2.0 | 6.0 | 0.00 | 0.12 | 0.12 | 36 | 1013.8 |
| 20260507061006 | 42 | 202 | 3.0 | 6.0 | 0.00 | 0.12 | 0.12 | 30 | 1013.8 |
| 20260507060505 | 42 | 157 | 5.0 | 10.0 | 0.00 | 0.12 | 0.12 | 35 | 1013.8 |
| 20260507060118 | 42 | 202 | 2.0 | 7.0 | 0.00 | 0.11 | 0.11 | 42 | 1013.4 |
| 20260507055507 | 42 | 157 | 4.0 | 8.0 | 0.00 | 0.11 | 0.11 | 41 | 1013.4 |
| 20260507055009 | 42 | 202 | 6.0 | 10.0 | 0.00 | 0.11 | 0.11 | 37 | 1013.4 |
| 20260507054505 | 42 | 135 | 6.0 | 8.0 | 0.00 | 0.10 | 0.10 | 27 | 1013.4 |
| 20260507054048 | 42 | 202 | 5.0 | 8.0 | 0.00 | 0.10 | 0.10 | 37 | 1013.4 |
| 20260507053508 | 42 | 180 | 2.0 | 5.0 | 0.00 | 0.10 | 0.10 | 34 | 1013.4 |
| 20260507053130 | 42 | 135 | 4.0 | 6.0 | 0.00 | 0.10 | 0.10 | 37 | 1013.1 |
| 20260507052507 | 42 | 135 | 3.0 | 5.0 | 0.00 | 0.10 | 0.10 | 36 | 1013.1 |
| 20260507052005 | 42 | 180 | 4.0 | 10.0 | 0.00 | 0.09 | 0.09 | 45 | 1013.1 |
| 20260507051505 | 43 | 112 | 2.0 | 6.0 | 0.00 | 0.09 | 0.09 | 48 | 1013.1 |
| 20260507051003 | 43 | 135 | 3.0 | 10.0 | 0.00 | 0.09 | 0.09 | 51 | 1013.1 |
| 20260507050508 | 42 | 135 | 5.0 | 11.0 | 0.00 | 0.08 | 0.08 | 47 | 1013.1 |
| 20260507050007 | 42 | 22 | 2.0 | 6.0 | 0.00 | 0.08 | 0.08 | 41 | 1013.1 |
| 20260507045506 | 42 | 90 | 0.0 | 5.0 | 0.00 | 0.08 | 0.08 | 37 | 1013.1 |
| 20260507045005 | 42 | 157 | 6.0 | 10.0 | 0.00 | 0.08 | 0.08 | 42 | 1013.1 |
| 20260507044504 | 42 | 157 | 1.0 | 7.0 | 0.00 | 0.08 | 0.08 | 36 | 1013.1 |
| 20260507044003 | 42 | 135 | 4.0 | 9.0 | 0.00 | 0.08 | 0.08 | 36 | 1013.1 |
| 20260507043502 | 42 | 90 | 5.0 | 12.0 | 0.00 | 0.08 | 0.08 | 40 | 1013.1 |
| 20260507043007 | 42 | 157 | 4.0 | 10.0 | 0.00 | 0.08 | 0.08 | 38 | 1012.7 |
| 20260507042507 | 42 | 157 | 8.0 | 13.0 | 0.00 | 0.08 | 0.08 | 46 | 1012.7 |
| 20260507042041 | 42 | 112 | 4.0 | 10.0 | 0.00 | 0.07 | 0.07 | 37 | 1013.1 |
| 20260507041515 | 42 | 135 | 6.0 | 13.0 | 0.00 | 0.07 | 0.07 | 41 | 1013.1 |
| 20260507041006 | 42 | 157 | 9.0 | 16.0 | 0.00 | 0.07 | 0.07 | 50 | 1013.1 |
| 20260507040605 | 42 | 135 | 12.0 | 17.0 | 0.00 | 0.06 | 0.06 | 56 | 1013.1 |
| 20260507040006 | 43 | 157 | 12.0 | 18.0 | 0.00 | 0.05 | 0.05 | 53 | 1013.1 |
| 20260507035530 | 43 | 202 | 10.0 | 18.0 | 0.00 | 0.03 | 0.03 | 56 | 1013.1 |
| 20260507035002 | 43 | 157 | 6.0 | 11.0 | 0.00 | 0.02 | 0.02 | 59 | 1013.1 |
| 20260507034505 | 44 | 157 | 9.0 | 13.0 | 0.00 | 0.02 | 0.02 | 60 | 1013.1 |
| 20260507034004 | 44 | 202 | 3.0 | 9.0 | 0.00 | 0.02 | 0.02 | 61 | 1013.1 |
| 20260507033503 | 44 | 157 | 7.0 | 11.0 | 0.00 | 0.01 | 0.01 | 69 | 1013.1 |
| 20260507033002 | 45 | 157 | 9.0 | 14.0 | 0.00 | 0.00 | 0.00 | 65 | 1013.1 |
| 20260507032508 | 46 | 247 | 4.0 | 7.0 | 0.00 | 0.00 | 0.00 | 76 | 1013.1 |
| 20260507032007 | 46 | 202 | 4.0 | 6.0 | 0.00 | 0.00 | 0.00 | 78 | 1012.7 |
| 20260507031506 | 46 | 180 | 1.0 | 3.0 | 0.00 | 0.00 | 0.00 | 79 | 1012.7 |
| 20260507031004 | 46 | 157 | 2.0 | 6.0 | 0.00 | 0.00 | 0.00 | 79 | 1013.1 |
| 20260507030504 | 47 | 157 | 3.0 | 8.0 | 0.00 | 0.00 | 0.00 | 79 | 1013.1 |
| 20260507030003 | 47 | 157 | 6.0 | 11.0 | 0.00 | 0.00 | 0.00 | 79 | 1013.1 |
| 20260507025506 | 47 | 180 | 6.0 | 12.0 | 0.00 | 0.00 | 0.00 | 78 | 1013.1 |
| 20260507025005 | 48 | 202 | 4.0 | 10.0 | 0.00 | 0.00 | 0.00 | 78 | 1012.7 |
| 20260507024504 | 48 | 112 | 7.0 | 15.0 | 0.00 | 0.00 | 0.00 | 79 | 1012.7 |
| 20260507024013 | 48 | 202 | 5.0 | 11.0 | 0.00 | 0.00 | 0.00 | 78 | 1012.7 |
| 20260507023545 | 48 | 157 | 4.0 | 6.0 | 0.00 | 0.00 | 0.00 | 79 | 1012.7 |
| 20260507023014 | 48 | 112 | 1.0 | 8.0 | 0.00 | 0.00 | 0.00 | 79 | 1012.7 |
| 20260507022508 | 48 | 157 | 6.0 | 10.0 | 0.00 | 0.00 | 0.00 | 78 | 1012.7 |
| 20260507022006 | 48 | 202 | 1.0 | 6.0 | 0.00 | 0.00 | 0.00 | 80 | 1012.4 |
| 20260507021623 | 48 | 247 | 3.0 | 6.0 | 0.00 | 0.00 | 0.00 | 80 | 1012.4 |
| 20260507021006 | 47 | 270 | 0.0 | 0.0 | 0.00 | 0.00 | 0.00 | 77 | 1012.4 |
| 20260507020506 | 46 | 202 | 0.0 | 0.0 | 0.00 | 0.00 | 0.00 | 79 | 1012.4 |
| 20260507020005 | 46 | 225 | 0.0 | 0.0 | 0.00 | 0.00 | 0.00 | 74 | 1012.4 |
| 20260507015506 | 46 | 202 | 1.0 | 5.0 | 0.00 | 0.00 | 0.00 | 76 | 1012.4 |
| 20260507015005 | 46 | 202 | 6.0 | 8.0 | 0.00 | 0.00 | 0.00 | 76 | 1012.4 |
| 20260507014505 | 46 | 180 | 6.0 | 11.0 | 0.00 | 0.00 | 0.00 | 77 | 1012.4 |
| 20260507014004 | 46 | 202 | 5.0 | 10.0 | 0.00 | 0.00 | 0.00 | 73 | 1012.4 |
| 20260507013503 | 45 | 202 | 6.0 | 9.0 | 0.00 | 0.00 | 0.00 | 69 | 1012.4 |
| 20260507013002 | 46 | 157 | 9.0 | 13.0 | 0.00 | 0.00 | 0.00 | 74 | 1012.4 |
| 20260507012507 | 46 | 90 | 0.0 | 0.0 | 0.00 | 0.00 | 0.00 | 77 | 1012.4 |
| 20260507012006 | 46 | 247 | 1.0 | 4.0 | 0.00 | 0.00 | 0.00 | 76 | 1012.7 |
| 20260507011505 | 46 | 225 | 4.0 | 8.0 | 0.00 | 0.00 | 0.00 | 76 | 1012.7 |
| 20260507011004 | 46 | 225 | 6.0 | 9.0 | 0.00 | 0.00 | 0.00 | 76 | 1012.7 |
| 20260507010509 | 46 | 202 | 8.0 | 10.0 | 0.00 | 0.00 | 0.00 | 77 | 1012.7 |
| 20260507010010 | 46 | 202 | 0.0 | 0.0 | 0.00 | 0.00 | 0.00 | 72 | 1012.7 |
| 20260507005608 | 46 | 180 | 0.0 | 0.0 | 0.00 | 0.00 | 0.00 | 73 | 1012.7 |
| 20260507005008 | 46 | 247 | 0.0 | 0.0 | 0.00 | 0.00 | 0.00 | 74 | 1012.7 |
| 20260507004505 | 46 | 225 | 3.0 | 7.0 | 0.00 | 0.00 | 0.00 | 77 | 1012.7 |
| 20260507004008 | 47 | 202 | 1.0 | 5.0 | 0.00 | 0.00 | 0.00 | 78 | 1012.7 |
| 20260507003554 | 47 | 270 | 1.0 | 5.0 | 0.00 | 0.00 | 0.00 | 70 | 1012.7 |
| 20260507003006 | 48 | 270 | 0.0 | 0.0 | 0.00 | 0.00 | 0.00 | 74 | 1012.7 |
| 20260507002503 | 48 | 22 | 0.0 | 0.0 | 0.00 | 0.00 | 0.00 | 75 | 1012.7 |
| 20260507002002 | 48 | 337 | 0.0 | 0.0 | 0.00 | 0.00 | 0.00 | 75 | 1012.7 |
| 20260507001508 | 48 | 292 | 1.0 | 5.0 | 0.00 | 0.00 | 0.00 | 75 | 1012.7 |
| 20260507001006 | 47 | 337 | 0.0 | 0.0 | 0.00 | 0.00 | 0.00 | 71 | 1012.4 |
| 20260507000505 | 47 | 247 | 0.0 | 0.0 | 0.00 | 0.00 | 0.00 | 72 | 1012.4 |
| 20260507000004 | 46 | 292 | 0.0 | 0.0 | 0.00 | 0.00 | 0.00 | 67 | 1012.4 |
| 20260506235503 | 47 | 270 | 3.0 | 6.0 | 0.00 | 0.00 | 0.00 | 69 | 1012.4 |
| 20260506235002 | 46 | 337 | 6.0 | 11.0 | 0.00 | 0.00 | 0.00 | 69 | 1012.4 |
| 20260506234507 | 47 | 337 | 3.0 | 7.0 | 0.00 | 0.00 | 0.00 | 69 | 1012.4 |
| 20260506234006 | 47 | 337 | 1.0 | 5.0 | 0.00 | 0.00 | 0.00 | 69 | 1012.7 |
| 20260506233505 | 47 | 315 | 0.0 | 0.0 | 0.00 | 0.00 | 0.00 | 71 | 1012.7 |
| 20260506233004 | 47 | 157 | 2.0 | 7.0 | 0.00 | 0.00 | 0.00 | 70 | 1012.4 |
| 20260506232509 | 47 | 292 | 1.0 | 1.0 | 0.00 | 0.00 | 0.00 | 72 | 1012.4 |
| 20260506232012 | 47 | 270 | 2.0 | 6.0 | 0.00 | 0.00 | 0.00 | 73 | 1012.7 |
| 20260506231516 | 47 | 225 | 3.0 | 6.0 | 0.00 | 0.00 | 0.00 | 74 | 1012.7 |
| 20260506231035 | 47 | 292 | 1.0 | 5.0 | 0.00 | 0.00 | 0.00 | 75 | 1012.4 |
| 20260506230505 | 47 | 247 | 5.0 | 7.0 | 0.00 | 0.00 | 0.00 | 75 | 1012.4 |
| 20260506230108 | 47 | 180 | 5.0 | 9.0 | 0.00 | 0.00 | 0.00 | 76 | 1012.4 |
| 20260506225504 | 46 | 292 | 4.0 | 10.0 | 0.00 | 0.00 | 0.00 | 77 | 1012.4 |
| 20260506225008 | 47 | 247 | 8.0 | 12.0 | 0.00 | 0.00 | 0.00 | 77 | 1012.4 |
| 20260506224521 | 48 | 247 | 6.0 | 13.0 | 0.00 | 0.00 | 0.00 | 80 | 1012.4 |
| 20260506224004 | 50 | 247 | 5.0 | 10.0 | 0.00 | 0.00 | 0.00 | 78 | 1012.4 |
| 20260506223506 | 49 | 247 | 4.0 | 6.0 | 0.00 | 0.00 | 0.00 | 79 | 1012.4 |
| 20260506223006 | 50 | 225 | 5.0 | 6.0 | 0.00 | 0.00 | 0.00 | 78 | 1012.1 |
| 20260506222505 | 50 | 247 | 5.0 | 13.0 | 0.00 | 0.00 | 0.00 | 79 | 1012.1 |
| 20260506222004 | 49 | 247 | 3.0 | 9.0 | 0.00 | 0.00 | 0.00 | 78 | 1012.1 |
| 20260506221503 | 49 | 247 | 3.0 | 11.0 | 0.00 | 0.00 | 0.00 | 78 | 1012.1 |
| 20260506221007 | 48 | 270 | 6.0 | 10.0 | 0.00 | 0.00 | 0.00 | 79 | 1011.7 |
| 20260506220506 | 48 | 225 | 1.0 | 6.0 | 0.00 | 0.00 | 0.00 | 79 | 1011.7 |
| 20260506220002 | 48 | 292 | 4.0 | 10.0 | 0.00 | 0.00 | 0.00 | 78 | 1011.7 |
| 20260506215507 | 47 | 202 | 7.0 | 15.0 | 0.00 | 0.00 | 0.00 | 77 | 1011.7 |
| 20260506215007 | 47 | 202 | 10.0 | 15.0 | 0.00 | 0.00 | 0.00 | 77 | 1011.7 |
| 20260506214505 | 47 | 202 | 13.0 | 18.0 | 0.00 | 0.00 | 0.00 | 77 | 1011.7 |
| 20260506214004 | 47 | 202 | 10.0 | 16.0 | 0.00 | 0.00 | 0.00 | 77 | 1011.7 |
| 20260506213509 | 47 | 202 | 9.0 | 16.0 | 0.00 | 0.00 | 0.00 | 76 | 1011.7 |
| 20260506213024 | 47 | 225 | 11.0 | 20.0 | 0.00 | 0.00 | 0.00 | 76 | 1011.7 |
| 20260506212503 | 47 | 202 | 9.0 | 13.0 | 0.00 | 0.00 | 0.00 | 77 | 1011.7 |
| 20260506212031 | 47 | 180 | 5.0 | 10.0 | 0.00 | 0.00 | 0.00 | 77 | 1011.7 |
| 20260506211513 | 47 | 202 | 11.0 | 16.0 | 0.00 | 0.00 | 0.00 | 79 | 1011.7 |
| 20260506211009 | 47 | 202 | 8.0 | 14.0 | 0.00 | 0.00 | 0.00 | 79 | 1011.7 |
| 20260506210507 | 47 | 247 | 7.0 | 12.0 | 0.00 | 0.00 | 0.00 | 79 | 1011.7 |
| 20260506210006 | 47 | 202 | 7.0 | 15.0 | 0.00 | 0.00 | 0.00 | 79 | 1011.4 |
| 20260506205505 | 46 | 247 | 8.0 | 15.0 | 0.00 | 0.00 | 0.00 | 79 | 1011.4 |
| 20260506205007 | 46 | 247 | 7.0 | 12.0 | 0.00 | 0.00 | 0.00 | 79 | 1011.4 |
| 20260506204506 | 46 | 202 | 5.0 | 9.0 | 0.00 | 0.00 | 0.00 | 79 | 1011.4 |
| 20260506204005 | 46 | 202 | 5.0 | 11.0 | 0.00 | 0.00 | 0.00 | 79 | 1011.4 |
| 20260506203505 | 46 | 247 | 6.0 | 11.0 | 0.00 | 0.00 | 0.00 | 79 | 1011.4 |
| 20260506203004 | 46 | 247 | 4.0 | 8.0 | 0.00 | 0.00 | 0.00 | 79 | 1011.4 |
| 20260506202503 | 46 | 202 | 7.0 | 11.0 | 0.00 | 0.00 | 0.00 | 80 | 1011.4 |
| 20260506202002 | 45 | 202 | 9.0 | 11.0 | 0.00 | 0.00 | 0.00 | 79 | 1011.4 |
| 20260506201507 | 47 | 202 | 7.0 | 12.0 | 0.00 | 0.00 | 0.00 | 80 | 1011.4 |
| 20260506201005 | 47 | 225 | 7.0 | 11.0 | 0.00 | 0.00 | 0.00 | 79 | 1011.4 |
| 20260506200504 | 47 | 225 | 6.0 | 7.0 | 0.00 | 0.00 | 0.00 | 79 | 1011.4 |
| 20260506200010 | 48 | 202 | 2.0 | 7.0 | 0.00 | 0.00 | 0.00 | 79 | 1011.0 |
| 20260506195507 | 47 | 202 | 3.0 | 6.0 | 0.00 | 0.00 | 0.00 | 79 | 1011.0 |
| 20260506195012 | 46 | 202 | 4.0 | 7.0 | 0.00 | 0.00 | 0.00 | 79 | 1011.0 |
| 20260506194510 | 47 | 270 | 0.0 | 0.0 | 0.00 | 0.00 | 0.00 | 79 | 1011.0 |
| 20260506194014 | 47 | 247 | 0.0 | 0.0 | 0.00 | 0.00 | 0.00 | 79 | 1011.0 |
| 20260506193510 | 48 | 360 | 1.0 | 0.0 | 0.00 | 0.00 | 0.00 | 80 | 1011.0 |
| 20260506193044 | 47 | 337 | 1.0 | 4.0 | 0.00 | 0.00 | 0.00 | 79 | 1011.0 |
| 20260506192508 | 47 | 315 | 1.0 | 4.0 | 0.00 | 0.00 | 0.00 | 79 | 1011.0 |
| 20260506192007 | 46 | 337 | 2.0 | 6.0 | 0.00 | 0.00 | 0.00 | 79 | 1011.0 |
| 20260506191518 | 46 | 315 | 1.0 | 5.0 | 0.00 | 0.00 | 0.00 | 79 | 1011.0 |
| 20260506191005 | 46 | 292 | 4.0 | 7.0 | 0.00 | 0.00 | 0.00 | 79 | 1011.0 |
| 20260506190505 | 46 | 292 | 1.0 | 5.0 | 0.00 | 0.00 | 0.00 | 80 | 1011.0 |
| 20260506190016 | 47 | 270 | 0.0 | 0.0 | 0.00 | 0.00 | 0.00 | 79 | 1011.0 |
| 20260506185504 | 47 | 337 | 1.0 | 5.0 | 0.00 | 0.00 | 0.00 | 79 | 1011.0 |
| 20260506185002 | 46 | 315 | 4.0 | 7.0 | 0.00 | 0.00 | 0.00 | 79 | 1010.7 |
| 20260506184507 | 46 | 337 | 3.0 | 6.0 | 0.00 | 0.00 | 0.00 | 79 | 1010.7 |
| 20260506184006 | 46 | 337 | 1.0 | 6.0 | 0.00 | 0.00 | 0.00 | 77 | 1010.7 |
| 20260506183505 | 46 | 315 | 1.0 | 6.0 | 0.00 | 0.00 | 0.00 | 78 | 1010.7 |
| 20260506183005 | 46 | 315 | 0.0 | 0.0 | 0.00 | 0.00 | 0.00 | 79 | 1010.7 |
| 20260506182504 | 46 | 22 | 2.0 | 6.0 | 0.00 | 0.00 | 0.00 | 79 | 1010.7 |
| 20260506182008 | 46 | 292 | 0.0 | 0.0 | 0.00 | 0.00 | 0.00 | 77 | 1010.7 |
| 20260506181516 | 45 | 292 | 2.0 | 7.0 | 0.00 | 0.00 | 0.00 | 77 | 1010.7 |
| 20260506181006 | 45 | 270 | 1.0 | 3.0 | 0.00 | 0.00 | 0.00 | 78 | 1010.4 |
| 20260506180504 | 45 | 337 | 2.0 | 5.0 | 0.00 | 0.00 | 0.00 | 77 | 1010.4 |
| 20260506180009 | 45 | 292 | 2.0 | 5.0 | 0.00 | 0.00 | 0.00 | 78 | 1010.4 |
| 20260506175507 | 45 | 270 | 3.0 | 6.0 | 0.00 | 0.00 | 0.00 | 79 | 1010.4 |
| 20260506175012 | 45 | 360 | 2.0 | 5.0 | 0.00 | 0.00 | 0.00 | 79 | 1010.0 |
| 20260506174635 | 45 | 270 | 0.0 | 0.0 | 0.00 | 0.00 | 0.00 | 78 | 1010.0 |
| 20260506174008 | 45 | 225 | 0.0 | 0.0 | 0.00 | 0.00 | 0.00 | 77 | 1010.0 |
| 20260506173505 | 45 | 292 | 0.0 | 0.0 | 0.00 | 0.00 | 0.00 | 78 | 1010.0 |
| 20260506173004 | 45 | 247 | 0.0 | 0.0 | 0.00 | 0.00 | 0.00 | 78 | 1010.0 |
| 20260506172503 | 44 | 315 | 0.0 | 0.0 | 0.00 | 0.00 | 0.00 | 78 | 1010.0 |
| 20260506172008 | 44 | 247 | 0.0 | 0.0 | 0.00 | 0.00 | 0.00 | 77 | 1010.0 |
| 20260506171507 | 44 | 292 | 0.0 | 0.0 | 0.00 | 0.00 | 0.00 | 77 | 1010.0 |
| 20260506171006 | 45 | 292 | 0.0 | 0.0 | 0.00 | 0.00 | 0.00 | 79 | 1010.0 |
| 20260506170504 | 44 | 292 | 0.0 | 0.0 | 0.00 | 0.00 | 0.00 | 78 | 1010.0 |
| 20260506170004 | 45 | 315 | 0.0 | 0.0 | 0.00 | 0.00 | 0.00 | 78 | 1009.7 |
| 20260506165503 | 44 | 292 | 0.0 | 0.0 | 0.00 | 0.00 | 0.00 | 78 | 1009.7 |
| 20260506165002 | 44 | 315 | 0.0 | 0.0 | 0.00 | 0.00 | 0.00 | 79 | 1009.7 |
| 20260506164507 | 44 | 337 | 0.0 | 0.0 | 0.00 | 0.00 | 0.00 | 78 | 1009.7 |
| 20260506164003 | 44 | 337 | 0.0 | 0.0 | 0.00 | 0.00 | 0.00 | 77 | 1009.7 |
| 20260506163531 | 44 | 292 | 0.0 | 0.0 | 0.00 | 0.00 | 0.00 | 78 | 1009.7 |
| 20260506163008 | 44 | 337 | 0.0 | 0.0 | 0.00 | 0.00 | 0.00 | 78 | 1009.4 |
| 20260506162505 | 44 | 22 | 0.0 | 0.0 | 0.00 | 0.00 | 0.00 | 77 | 1009.4 |
| 20260506162040 | 43 | 337 | 2.0 | 4.0 | 0.00 | 0.00 | 0.00 | 77 | 1009.4 |
| 20260506161518 | 43 | 22 | 0.0 | 3.0 | 0.00 | 0.00 | 0.00 | 76 | 1009.4 |
| 20260506161003 | 42 | 22 | 1.0 | 4.0 | 0.00 | 0.00 | 0.00 | 75 | 1009.4 |
| 20260506160507 | 42 | 45 | 0.0 | 5.0 | 0.00 | 0.00 | 0.00 | 74 | 1009.4 |
| 20260506160004 | 42 | 22 | 3.0 | 7.0 | 0.00 | 0.00 | 0.00 | 73 | 1009.0 |
| 20260506155503 | 42 | 45 | 0.0 | 0.0 | 0.00 | 0.00 | 0.00 | 74 | 1009.0 |
| 20260506155002 | 42 | 67 | 0.0 | 0.0 | 0.00 | 0.00 | 0.00 | 73 | 1009.0 |
| 20260506154507 | 42 | 67 | 0.0 | 0.0 | 0.00 | 0.00 | 0.00 | 73 | 1009.0 |
| 20260506154002 | 42 | 337 | 0.0 | 0.0 | 0.00 | 0.00 | 0.00 | 73 | 1009.0 |
| 20260506153507 | 42 | 337 | 0.0 | 0.0 | 0.00 | 0.00 | 0.00 | 73 | 1009.0 |
| 20260506153006 | 42 | 315 | 0.0 | 0.0 | 0.00 | 0.00 | 0.00 | 74 | 1008.7 |
| 20260506152505 | 42 | 22 | 0.0 | 0.0 | 0.00 | 0.00 | 0.00 | 73 | 1008.7 |
| 20260506152005 | 42 | 22 | 0.0 | 0.0 | 0.00 | 0.00 | 0.00 | 73 | 1008.7 |
| 20260506151504 | 41 | 337 | 0.0 | 0.0 | 0.00 | 0.00 | 0.00 | 74 | 1008.7 |
| 20260506151008 | 41 | 337 | 1.0 | 4.0 | 0.00 | 0.00 | 0.00 | 75 | 1008.7 |
| 20260506150507 | 41 | 22 | 0.0 | 0.0 | 0.00 | 0.00 | 0.00 | 75 | 1008.7 |
| 20260506150006 | 41 | 45 | 0.0 | 0.0 | 0.00 | 0.00 | 0.00 | 75 | 1008.7 |
| 20260506145511 | 41 | 67 | 1.0 | 4.0 | 0.00 | 0.00 | 0.00 | 75 | 1008.7 |
| 20260506145034 | 41 | 22 | 0.0 | 5.0 | 0.00 | 0.00 | 0.00 | 75 | 1008.7 |
| 20260506144504 | 41 | 22 | 0.0 | 0.0 | 0.00 | 0.00 | 0.00 | 73 | 1008.7 |
| 20260506144009 | 41 | 45 | 0.0 | 0.0 | 0.00 | 0.00 | 0.00 | 71 | 1008.7 |
| 20260506143506 | 41 | 22 | 0.0 | 0.0 | 0.00 | 0.00 | 0.00 | 70 | 1008.7 |
| 20260506143022 | 41 | 22 | 0.0 | 0.0 | 0.00 | 0.00 | 0.00 | 69 | 1008.7 |
| 20260506142505 | 41 | 45 | 0.0 | 0.0 | 0.00 | 0.00 | 0.00 | 68 | 1008.7 |
| 20260506142007 | 40 | 45 | 0.0 | 0.0 | 0.00 | 0.00 | 0.00 | 66 | 1008.3 |
| 20260506141506 | 41 | 180 | 0.0 | 0.0 | 0.00 | 0.00 | 0.00 | 61 | 1008.3 |
| 20260506141004 | 41 | 180 | 0.0 | 0.0 | 0.00 | 0.00 | 0.00 | 62 | 1008.7 |
| 20260506140504 | 41 | 180 | 0.0 | 0.0 | 0.00 | 0.00 | 0.00 | 64 | 1008.7 |
| 20260506140002 | 41 | 202 | 0.0 | 0.0 | 0.00 | 0.00 | 0.00 | 64 | 1008.7 |
| 20260506135507 | 41 | 157 | 0.0 | 0.0 | 0.00 | 0.00 | 0.00 | 65 | 1008.7 |
| 20260506135006 | 41 | 202 | 2.0 | 5.0 | 0.00 | 0.00 | 0.00 | 67 | 1008.7 |
| 20260506134505 | 42 | 157 | 1.0 | 3.0 | 0.00 | 0.00 | 0.00 | 69 | 1008.7 |
| 20260506134029 | 41 | 202 | 1.0 | 5.0 | 0.00 | 0.00 | 0.00 | 68 | 1008.7 |
| 20260506133502 | 42 | 202 | 2.0 | 6.0 | 0.00 | 0.00 | 0.00 | 69 | 1008.7 |
| 20260506133007 | 42 | 180 | 5.0 | 6.0 | 0.00 | 0.00 | 0.00 | 73 | 1008.7 |
| 20260506132506 | 42 | 180 | 3.0 | 7.0 | 0.00 | 0.00 | 0.00 | 76 | 1008.7 |
| 20260506132005 | 42 | 157 | 2.0 | 4.0 | 0.00 | 0.00 | 0.00 | 78 | 1008.7 |
| 20260506131527 | 42 | 157 | 0.0 | 0.0 | 0.00 | 0.00 | 0.00 | 75 | 1008.7 |
| 20260506131004 | 42 | 202 | 0.0 | 0.0 | 0.00 | 0.00 | 0.00 | 74 | 1008.3 |
| 20260506130515 | 42 | 225 | 0.0 | 0.0 | 0.00 | 0.00 | 0.00 | 75 | 1008.3 |
| 20260506130012 | 42 | 135 | 3.0 | 6.0 | 0.00 | 0.00 | 0.00 | 75 | 1008.3 |
| 20260506125508 | 42 | 202 | 3.0 | 6.0 | 0.00 | 0.00 | 0.00 | 76 | 1008.3 |
| 20260506125042 | 42 | 202 | 1.0 | 5.0 | 0.00 | 0.00 | 0.00 | 77 | 1008.3 |
| 20260506124507 | 42 | 202 | 1.0 | 6.0 | 0.00 | 0.00 | 0.00 | 76 | 1008.3 |
| 20260506124005 | 42 | 202 | 0.0 | 0.0 | 0.00 | 0.00 | 0.00 | 76 | 1008.7 |
| 20260506123507 | 42 | 157 | 1.0 | 5.0 | 0.00 | 0.00 | 0.00 | 75 | 1008.7 |
| 20260506123006 | 42 | 202 | 4.0 | 7.0 | 0.00 | 0.00 | 0.00 | 76 | 1008.3 |
| 20260506122505 | 42 | 202 | 0.0 | 4.0 | 0.00 | 0.00 | 0.00 | 76 | 1008.3 |
| 20260506122004 | 42 | 157 | 5.0 | 8.0 | 0.00 | 0.00 | 0.00 | 77 | 1008.3 |
| 20260506121503 | 42 | 202 | 2.0 | 5.0 | 0.00 | 0.00 | 0.00 | 76 | 1008.3 |
| 20260506121007 | 42 | 180 | 1.0 | 4.0 | 0.00 | 0.00 | 0.00 | 76 | 1008.3 |
| 20260506120507 | 42 | 202 | 1.0 | 4.0 | 0.00 | 0.00 | 0.00 | 76 | 1008.3 |
| 20260506120005 | 42 | 157 | 0.0 | 2.0 | 0.00 | 0.00 | 0.00 | 76 | 1008.3 |
| 20260506115504 | 42 | 202 | 2.0 | 5.0 | 0.00 | 0.00 | 0.00 | 76 | 1008.3 |
| 20260506115003 | 42 | 202 | 0.0 | 2.0 | 0.00 | 0.00 | 0.00 | 76 | 1008.3 |
| 20260506114508 | 42 | 202 | 1.0 | 5.0 | 0.00 | 0.00 | 0.00 | 77 | 1008.3 |
| 20260506114007 | 42 | 157 | 0.0 | 2.0 | 0.00 | 0.00 | 0.00 | 77 | 1008.3 |
| 20260506113505 | 42 | 157 | 1.0 | 5.0 | 0.00 | 0.00 | 0.00 | 76 | 1008.3 |
| 20260506113014 | 42 | 180 | 2.0 | 5.0 | 0.00 | 0.00 | 0.00 | 76 | 1008.3 |
| 20260506112510 | 42 | 180 | 3.0 | 6.0 | 0.00 | 0.00 | 0.00 | 77 | 1008.3 |
| 20260506112009 | 42 | 202 | 3.0 | 8.0 | 0.00 | 0.00 | 0.00 | 78 | 1008.0 |
| 20260506111702 | 42 | 157 | 5.0 | 11.0 | 0.00 | 0.00 | 0.00 | 79 | 1008.0 |
| 20260506111006 | 42 | 225 | 4.0 | 11.0 | 0.00 | 0.00 | 0.00 | 79 | 1008.0 |
| 20260506110503 | 43 | 202 | 3.0 | 8.0 | 0.00 | 0.00 | 0.00 | 80 | 1008.0 |
| 20260506110002 | 43 | 157 | 4.0 | 8.0 | 0.00 | 0.00 | 0.00 | 80 | 1008.0 |
| 20260506105501 | 43 | 157 | 5.0 | 10.0 | 0.00 | 0.00 | 0.00 | 81 | 1008.0 |
| 20260506105007 | 43 | 202 | 6.0 | 10.0 | 0.00 | 0.00 | 0.00 | 81 | 1008.0 |
| 20260506104506 | 43 | 180 | 3.0 | 7.0 | 0.00 | 0.00 | 0.00 | 81 | 1008.0 |
| 20260506104005 | 43 | 180 | 2.0 | 8.0 | 0.00 | 0.00 | 0.00 | 81 | 1008.0 |
| 20260506103504 | 42 | 180 | 8.0 | 11.0 | 0.00 | 0.00 | 0.00 | 80 | 1008.0 |
| 20260506103003 | 42 | 202 | 6.0 | 11.0 | 0.00 | 0.00 | 0.00 | 80 | 1008.0 |
| 20260506102503 | 42 | 180 | 8.0 | 15.0 | 0.00 | 0.00 | 0.00 | 80 | 1008.0 |
| 20260506102008 | 42 | 202 | 5.0 | 10.0 | 0.00 | 0.00 | 0.00 | 80 | 1008.0 |
| 20260506101507 | 43 | 202 | 5.0 | 9.0 | 0.00 | 0.00 | 0.00 | 81 | 1008.0 |
| 20260506101004 | 43 | 202 | 8.0 | 15.0 | 0.00 | 0.00 | 0.00 | 81 | 1007.7 |
| 20260506100503 | 43 | 180 | 5.0 | 10.0 | 0.00 | 0.00 | 0.00 | 81 | 1007.7 |
| 20260506100040 | 43 | 157 | 10.0 | 13.0 | 0.00 | 0.00 | 0.00 | 81 | 1008.0 |